Hamburg, Arkansas
Current Conditions -  °F | °C
As of 10:53 PM on Sunday 19 Oct 2014 (Local Time) from KLLQ Reporting Station
Clear Clear  
Wind Chill: 50°   Ceiling: Unl
Heat Index: 50°   Visibility: 10mi
Dew Point: 47°   Wind: 0mph
Humidity: 89%   Direction: NA
Pressure: 30.11"   Gusts: NA
Location:  33.23°N, 91.8°W
Report Text: KLLQ 200353Z AUTO 00000KT 10SM CLR 10/08 A3011 RMK AO2 SLP194 T01000083
Loading
Personal Weather Stations






























Interactive Weather Map
Tropical Storm Tracking
New forecast layout! Learn more

10-Day Weather Forecast

Advertisements
Track Severe Weather on mobile